createdAt,value
2018-04-17T00:00:27.800Z,0.00
2018-04-17T00:01:27.800Z,0.00
2018-04-17T00:02:27.841Z,0.00
2018-04-17T00:03:27.784Z,0.00
2018-04-17T00:04:27.778Z,0.00
2018-04-17T00:05:27.771Z,0.00
2018-04-17T00:06:27.766Z,0.00
2018-04-17T00:07:27.764Z,0.00
2018-04-17T00:08:27.761Z,0.00
2018-04-17T00:09:27.757Z,0.00
2018-04-17T00:10:27.752Z,0.00
2018-04-17T00:11:27.741Z,0.00
2018-04-17T00:12:27.739Z,0.00
2018-04-17T00:13:27.731Z,0.00
2018-04-17T00:14:27.723Z,0.00
2018-04-17T00:15:27.717Z,0.00
2018-04-17T00:16:27.712Z,0.00
2018-04-17T00:17:27.708Z,0.00
2018-04-17T00:18:27.700Z,0.00
2018-04-17T00:19:27.698Z,0.00
2018-04-17T00:20:27.694Z,0.00
2018-04-17T00:21:27.687Z,0.00
2018-04-17T00:22:27.682Z,0.00
2018-04-17T00:23:27.673Z,0.00
2018-04-17T00:24:27.667Z,0.00
2018-04-17T00:25:27.661Z,0.00
2018-04-17T00:26:27.656Z,0.00
2018-04-17T00:27:27.649Z,0.00
2018-04-17T00:28:27.645Z,0.00
2018-04-17T00:29:27.640Z,0.00
2018-04-17T00:30:27.632Z,0.00
2018-04-17T00:31:27.630Z,0.00
2018-04-17T00:32:27.676Z,0.00
2018-04-17T00:33:27.619Z,0.00
2018-04-17T00:34:27.614Z,0.00
2018-04-17T00:35:27.604Z,0.00
2018-04-17T00:36:27.598Z,0.00
2018-04-17T00:37:27.593Z,0.00
2018-04-17T00:38:27.588Z,0.00
2018-04-17T00:39:27.586Z,0.00
2018-04-17T00:40:27.580Z,0.00
2018-04-17T00:41:27.570Z,0.00
2018-04-17T00:42:27.563Z,0.00
2018-04-17T00:43:27.562Z,0.00
2018-04-17T00:44:27.554Z,0.00
2018-04-17T00:45:27.547Z,0.00
2018-04-17T00:46:27.541Z,0.00
2018-04-17T00:47:27.536Z,0.00
2018-04-17T00:48:27.534Z,0.00
2018-04-17T00:49:27.523Z,0.00
2018-04-17T00:50:27.518Z,0.00
2018-04-17T00:51:27.516Z,0.00
2018-04-17T00:52:27.515Z,0.00
2018-04-17T00:53:27.505Z,0.00
2018-04-17T00:54:27.499Z,0.00
2018-04-17T00:55:27.490Z,0.00
2018-04-17T00:56:27.484Z,0.00
2018-04-17T00:57:27.480Z,0.00
2018-04-17T00:58:27.473Z,0.00
2018-04-17T00:59:27.470Z,0.00
2018-04-17T01:00:27.463Z,0.00
2018-04-17T01:01:27.458Z,0.00
2018-04-17T01:02:27.449Z,0.00
2018-04-17T01:03:27.443Z,0.00
2018-04-17T01:04:27.437Z,0.00
2018-04-17T01:05:27.434Z,0.00
2018-04-17T01:06:27.429Z,0.00
2018-04-17T01:07:27.419Z,0.00
2018-04-17T01:08:27.414Z,0.00
2018-04-17T01:09:27.407Z,0.00
2018-04-17T01:10:27.401Z,0.00
2018-04-17T01:11:27.401Z,0.00
2018-04-17T01:12:27.394Z,0.00
2018-04-17T01:13:27.383Z,0.00
2018-04-17T01:14:27.377Z,0.00
2018-04-17T01:15:27.372Z,0.00
2018-04-17T01:16:27.366Z,0.00
2018-04-17T01:17:27.359Z,0.00
2018-04-17T01:18:27.353Z,0.00
2018-04-17T01:19:27.347Z,0.00
2018-04-17T01:20:27.341Z,0.00
2018-04-17T01:21:27.333Z,0.00
2018-04-17T01:22:27.331Z,0.00
2018-04-17T01:23:27.327Z,0.00
2018-04-17T01:24:27.320Z,0.00
2018-04-17T01:25:27.314Z,0.00
2018-04-17T01:26:27.308Z,0.00
2018-04-17T01:27:27.298Z,0.00
2018-04-17T01:28:27.292Z,0.00
2018-04-17T01:29:27.285Z,0.00
2018-04-17T01:30:27.280Z,0.00
2018-04-17T01:31:27.273Z,0.00
2018-04-17T01:32:27.268Z,0.00
2018-04-17T01:33:27.260Z,0.00
2018-04-17T01:34:27.254Z,0.00
2018-04-17T01:35:27.248Z,0.00
2018-04-17T01:36:27.243Z,0.00
2018-04-17T01:37:27.239Z,0.00
2018-04-17T01:38:27.234Z,0.00
2018-04-17T01:39:27.224Z,0.00
2018-04-17T01:40:27.217Z,0.00
2018-04-17T01:41:27.210Z,0.00
2018-04-17T01:42:27.204Z,0.00
2018-04-17T01:43:27.198Z,0.00
2018-04-17T01:44:27.193Z,0.00
2018-04-17T01:45:27.188Z,0.00
2018-04-17T01:46:27.183Z,0.00
2018-04-17T01:47:27.173Z,0.00
2018-04-17T01:48:27.168Z,0.00
2018-04-17T01:49:27.164Z,0.00
2018-04-17T01:50:27.158Z,0.00
2018-04-17T01:51:27.149Z,0.00
2018-04-17T01:52:27.141Z,0.00
2018-04-17T01:53:27.136Z,0.00
2018-04-17T01:54:27.131Z,0.00
2018-04-17T01:55:27.125Z,0.00
2018-04-17T01:56:27.119Z,0.00
2018-04-17T01:57:27.151Z,0.00
2018-04-17T01:58:27.105Z,0.00
2018-04-17T01:59:27.099Z,0.00
2018-04-17T02:00:27.095Z,0.00
2018-04-17T02:01:27.087Z,0.00
2018-04-17T02:02:27.083Z,0.00
2018-04-17T02:03:27.080Z,0.00
2018-04-17T02:04:27.073Z,0.00
2018-04-17T02:05:27.062Z,0.00
2018-04-17T02:06:27.055Z,0.00
2018-04-17T02:07:27.052Z,0.00
2018-04-17T02:08:27.047Z,0.00
2018-04-17T02:09:27.037Z,0.00
2018-04-17T02:10:27.074Z,0.00
2018-04-17T02:11:27.024Z,0.00
2018-04-17T02:12:27.020Z,0.00
2018-04-17T02:13:27.010Z,0.00
2018-04-17T02:14:27.005Z,0.00
2018-04-17T02:15:26.998Z,0.00
2018-04-17T02:16:26.991Z,0.00
2018-04-17T02:17:26.987Z,0.00
2018-04-17T02:18:26.981Z,0.00
2018-04-17T02:19:26.973Z,0.00
2018-04-17T02:20:26.965Z,0.00
2018-04-17T02:21:26.962Z,0.00
2018-04-17T02:22:26.955Z,0.00
2018-04-17T02:23:26.946Z,0.00
2018-04-17T02:24:26.937Z,0.00
2018-04-17T02:25:26.932Z,0.00
2018-04-17T02:26:26.924Z,0.00
2018-04-17T02:27:26.918Z,0.00
2018-04-17T02:28:26.912Z,0.00
2018-04-17T02:29:26.907Z,0.00
2018-04-17T02:30:26.904Z,0.00
2018-04-17T02:31:26.894Z,0.00
2018-04-17T02:32:26.886Z,0.00
2018-04-17T02:33:26.879Z,0.00
2018-04-17T02:34:26.871Z,0.00
2018-04-17T02:35:26.870Z,0.00
2018-04-17T02:36:26.863Z,0.00
2018-04-17T02:37:26.853Z,0.00
2018-04-17T02:38:26.845Z,0.00
2018-04-17T02:39:26.843Z,0.00
2018-04-17T02:40:26.836Z,0.00
2018-04-17T02:41:26.825Z,0.00
2018-04-17T02:42:26.822Z,0.00
2018-04-17T02:43:26.813Z,0.00
2018-04-17T02:44:26.806Z,0.00
2018-04-17T02:45:26.797Z,0.00
2018-04-17T02:46:26.792Z,0.00
2018-04-17T02:47:26.788Z,0.00
2018-04-17T02:48:26.782Z,0.00
2018-04-17T02:49:26.774Z,0.00
2018-04-17T02:50:26.765Z,0.00
2018-04-17T02:51:26.762Z,0.00
2018-04-17T02:52:26.751Z,0.00
2018-04-17T02:53:26.743Z,0.00
2018-04-17T02:54:26.736Z,0.00
2018-04-17T02:55:26.734Z,0.00
2018-04-17T02:56:26.724Z,0.00
2018-04-17T02:57:26.715Z,0.00
2018-04-17T02:58:26.709Z,0.00
2018-04-17T02:59:26.706Z,0.00
2018-04-17T03:00:26.700Z,0.00
2018-04-17T03:01:26.691Z,0.00
2018-04-17T03:02:26.684Z,0.00
2018-04-17T03:03:26.675Z,0.00
2018-04-17T03:04:26.667Z,0.00
2018-04-17T03:05:26.662Z,0.00
2018-04-17T03:06:26.654Z,0.00
2018-04-17T03:07:26.646Z,0.00
2018-04-17T03:08:26.639Z,0.00
2018-04-17T03:09:26.633Z,0.00
2018-04-17T03:10:26.626Z,0.00
2018-04-17T03:11:26.618Z,0.00
2018-04-17T03:12:26.612Z,0.00
2018-04-17T03:13:26.609Z,0.00
2018-04-17T03:14:26.602Z,0.00
2018-04-17T03:15:26.590Z,0.00
2018-04-17T03:16:26.584Z,0.00
2018-04-17T03:17:26.577Z,0.00
2018-04-17T03:18:26.570Z,0.00
2018-04-17T03:19:26.568Z,0.00
2018-04-17T03:20:26.561Z,0.00
2018-04-17T03:21:26.549Z,0.00
2018-04-17T03:22:26.543Z,0.00
2018-04-17T03:23:26.537Z,0.00
2018-04-17T03:24:26.531Z,0.00
2018-04-17T03:25:26.525Z,0.00
2018-04-17T03:26:26.524Z,0.00
2018-04-17T03:27:26.509Z,0.00
2018-04-17T03:28:26.503Z,0.00
2018-04-17T03:29:26.495Z,0.00
2018-04-17T03:30:26.488Z,0.00
2018-04-17T03:31:26.491Z,0.00
2018-04-17T03:32:26.482Z,0.00
2018-04-17T03:33:26.470Z,0.00
2018-04-17T03:34:26.464Z,0.00
2018-04-17T03:35:26.453Z,0.00
2018-04-17T03:36:26.448Z,0.00
2018-04-17T03:37:26.440Z,0.00
2018-04-17T03:38:26.432Z,0.00
2018-04-17T03:39:26.426Z,0.00
2018-04-17T03:40:26.419Z,0.00
2018-04-17T03:41:26.411Z,0.00
2018-04-17T03:42:26.405Z,0.00
2018-04-17T03:43:26.397Z,0.00
2018-04-17T03:44:26.391Z,0.00
2018-04-17T03:45:26.386Z,0.00
2018-04-17T03:46:26.380Z,0.00
2018-04-17T03:47:26.370Z,0.00
2018-04-17T03:48:26.362Z,0.00
2018-04-17T03:49:26.359Z,0.00
2018-04-17T03:50:26.348Z,0.00
2018-04-17T03:51:26.357Z,0.00
2018-04-17T03:52:26.338Z,0.00
2018-04-17T03:53:26.330Z,0.00
2018-04-17T03:54:26.323Z,0.00
2018-04-17T03:55:26.312Z,0.00
2018-04-17T03:56:26.306Z,0.00
2018-04-17T03:57:26.303Z,0.00
2018-04-17T03:58:26.299Z,0.00
2018-04-17T03:59:26.286Z,4.00
2018-04-17T04:00:26.278Z,4.00
2018-04-17T04:01:26.271Z,4.00
2018-04-17T04:02:26.278Z,0.00
2018-04-17T04:03:26.257Z,4.00
2018-04-17T04:04:26.251Z,4.00
2018-04-17T04:05:26.242Z,4.00
2018-04-17T04:06:26.235Z,8.00
2018-04-17T04:07:26.230Z,8.00
2018-04-17T04:08:26.222Z,8.00
2018-04-17T04:09:26.215Z,8.00
2018-04-17T04:10:26.207Z,12.00
2018-04-17T04:11:26.204Z,12.00
2018-04-17T04:12:26.198Z,16.00
2018-04-17T04:13:26.185Z,16.00
2018-04-17T04:14:26.179Z,20.00
2018-04-17T04:15:26.178Z,20.00
2018-04-17T04:16:26.169Z,24.00
2018-04-17T04:17:26.156Z,32.00
2018-04-17T04:18:26.152Z,36.00
2018-04-17T04:19:26.144Z,40.00
2018-04-17T04:20:26.141Z,48.00
2018-04-17T04:21:26.128Z,52.00
2018-04-17T04:22:26.121Z,60.00
2018-04-17T04:23:26.116Z,72.00
2018-04-17T04:24:26.108Z,84.00
2018-04-17T04:25:26.103Z,92.00
2018-04-17T04:26:26.097Z,104.00
2018-04-17T04:27:26.090Z,116.00
2018-04-17T04:28:26.079Z,128.00
2018-04-17T04:29:26.075Z,144.00
2018-04-17T04:30:26.068Z,160.00
2018-04-17T04:31:26.057Z,180.00
2018-04-17T04:32:26.059Z,196.00
2018-04-17T04:33:26.042Z,216.00
2018-04-17T04:34:26.036Z,236.00
2018-04-17T04:35:26.034Z,256.00
2018-04-17T04:36:26.022Z,280.00
2018-04-17T04:37:26.014Z,304.00
2018-04-17T04:38:26.008Z,328.00
2018-04-17T04:39:26.000Z,356.00
2018-04-17T04:40:25.996Z,384.00
2018-04-17T04:41:25.985Z,412.00
2018-04-17T04:42:25.979Z,444.00
2018-04-17T04:43:25.979Z,476.00
2018-04-17T04:44:25.969Z,512.00
2018-04-17T04:45:25.957Z,544.00
2018-04-17T04:46:25.951Z,584.00
2018-04-17T04:47:25.951Z,624.00
2018-04-17T04:48:25.944Z,660.00
2018-04-17T04:49:25.929Z,704.00
2018-04-17T04:50:25.921Z,752.00
2018-04-17T04:51:25.914Z,796.00
2018-04-17T04:52:25.907Z,848.00
2018-04-17T04:53:25.899Z,896.00
2018-04-17T04:54:25.892Z,948.00
2018-04-17T04:55:25.890Z,1000.00
2018-04-17T04:56:25.882Z,1060.00
2018-04-17T04:57:25.872Z,1116.00
2018-04-17T04:58:25.864Z,1176.00
2018-04-17T04:59:25.882Z,1240.00
2018-04-17T05:00:25.861Z,1304.00
2018-04-17T05:01:25.843Z,1368.00
2018-04-17T05:02:25.836Z,1440.00
2018-04-17T05:03:25.830Z,1512.00
2018-04-17T05:04:25.825Z,1596.00
2018-04-17T05:05:25.816Z,1696.00
2018-04-17T05:06:25.810Z,1908.00
2018-04-17T05:07:25.808Z,2312.00
2018-04-17T05:08:25.800Z,2792.00
2018-04-17T05:09:25.794Z,3104.00
2018-04-17T05:10:25.786Z,3360.00
2018-04-17T05:11:25.775Z,3564.00
2018-04-17T05:12:25.770Z,3728.00
2018-04-17T05:13:25.769Z,3952.00
2018-04-17T05:14:25.757Z,4140.00
2018-04-17T05:15:25.750Z,4340.00
2018-04-17T05:16:25.744Z,4528.00
2018-04-17T05:17:25.738Z,4744.00
2018-04-17T05:18:25.732Z,4948.00
2018-04-17T05:19:25.726Z,5072.00
2018-04-17T05:20:25.722Z,5268.00
2018-04-17T05:21:25.718Z,5512.00
2018-04-17T05:22:25.713Z,5752.00
2018-04-17T05:23:25.704Z,5920.00
2018-04-17T05:24:25.699Z,6220.00
2018-04-17T05:25:25.692Z,6656.00
2018-04-17T05:26:25.687Z,7248.00
2018-04-17T05:27:25.687Z,7560.00
2018-04-17T05:28:25.694Z,7828.00
2018-04-17T05:29:25.677Z,8172.00
2018-04-17T05:30:25.670Z,8520.00
2018-04-17T05:31:25.665Z,8768.00
2018-04-17T05:32:25.710Z,9048.00
2018-04-17T05:33:25.656Z,9416.00
2018-04-17T05:34:25.655Z,9840.00
2018-04-17T05:35:25.651Z,10028.00
2018-04-17T05:36:25.647Z,10396.00
2018-04-17T05:37:25.642Z,10520.00
2018-04-17T05:38:25.639Z,10660.00
2018-04-17T05:39:25.640Z,10880.00
2018-04-17T05:40:25.640Z,11116.00
2018-04-17T05:41:25.635Z,11660.00
2018-04-17T05:42:25.644Z,11984.00
2018-04-17T05:43:25.632Z,12480.00
2018-04-17T05:44:25.700Z,12600.00
2018-04-17T05:45:25.623Z,13120.00
2018-04-17T05:46:25.621Z,13216.00
2018-04-17T05:47:25.634Z,13440.00
2018-04-17T05:48:25.618Z,13536.00
2018-04-17T05:49:25.622Z,13696.00
2018-04-17T05:50:25.618Z,13984.00
2018-04-17T05:51:25.617Z,14464.00
2018-04-17T05:52:25.615Z,14848.00
2018-04-17T05:53:25.621Z,14976.00
2018-04-17T05:54:25.616Z,15232.00
2018-04-17T05:55:25.613Z,15616.00
2018-04-17T05:56:25.617Z,15936.00
2018-04-17T05:57:25.613Z,16096.00
2018-04-17T05:58:25.613Z,16352.00
2018-04-17T05:59:25.629Z,16288.00
2018-04-17T06:00:25.613Z,16416.00
2018-04-17T06:01:25.618Z,16800.00
2018-04-17T06:02:25.619Z,16992.00
2018-04-17T06:03:25.614Z,17120.00
2018-04-17T06:04:25.642Z,17376.00
2018-04-17T06:05:25.621Z,17568.00
2018-04-17T06:06:25.622Z,18112.00
2018-04-17T06:07:25.620Z,18432.00
2018-04-17T06:08:25.623Z,18720.00
2018-04-17T06:09:25.652Z,19040.00
2018-04-17T06:10:25.624Z,19296.00
2018-04-17T06:11:25.626Z,19392.00
2018-04-17T06:12:25.630Z,19584.00
2018-04-17T06:13:25.632Z,19840.00
2018-04-17T06:14:25.634Z,20032.00
2018-04-17T06:15:25.636Z,20448.00
2018-04-17T06:16:25.644Z,20512.00
2018-04-17T06:17:25.641Z,20800.00
2018-04-17T06:18:25.644Z,21088.00
2018-04-17T06:19:25.652Z,21536.00
2018-04-17T06:20:25.656Z,21760.00
2018-04-17T06:21:25.653Z,22080.00
2018-04-17T06:22:25.657Z,22112.00
2018-04-17T06:23:25.665Z,22208.00
2018-04-17T06:24:25.672Z,22432.00
2018-04-17T06:25:25.668Z,22816.00
2018-04-17T06:26:25.677Z,22784.00
2018-04-17T06:27:25.677Z,22880.00
2018-04-17T06:28:25.680Z,22944.00
2018-04-17T06:29:25.685Z,23424.00
2018-04-17T06:30:25.689Z,23296.00
2018-04-17T06:31:25.693Z,23648.00
2018-04-17T06:32:25.699Z,24000.00
2018-04-17T06:33:25.706Z,24224.00
2018-04-17T06:34:25.710Z,24416.00
2018-04-17T06:35:25.711Z,24640.00
2018-04-17T06:36:25.718Z,24384.00
2018-04-17T06:37:25.726Z,24800.00
2018-04-17T06:38:25.732Z,25088.00
2018-04-17T06:39:25.733Z,25184.00
2018-04-17T06:40:25.737Z,25312.00
2018-04-17T06:41:25.776Z,25536.00
2018-04-17T06:42:25.749Z,25696.00
2018-04-17T06:43:25.754Z,25696.00
2018-04-17T06:44:25.759Z,25920.00
2018-04-17T06:45:25.764Z,26272.00
2018-04-17T06:46:25.771Z,26496.00
2018-04-17T06:47:25.790Z,26656.00
2018-04-17T06:48:25.787Z,26720.00
2018-04-17T06:49:25.787Z,27040.00
2018-04-17T06:50:25.794Z,27168.00
2018-04-17T06:51:25.804Z,27200.00
2018-04-17T06:52:25.813Z,27424.00
2018-04-17T06:53:25.814Z,27616.00
2018-04-17T06:54:25.819Z,27808.00
2018-04-17T06:55:25.831Z,27616.00
2018-04-17T06:56:25.837Z,27872.00
2018-04-17T06:57:25.839Z,28128.00
2018-04-17T06:58:25.847Z,28320.00
2018-04-17T06:59:25.854Z,28608.00
2018-04-17T07:00:25.861Z,28608.00
2018-04-17T07:01:25.867Z,28832.00
2018-04-17T07:02:25.876Z,29184.00
2018-04-17T07:03:25.886Z,29216.00
2018-04-17T07:04:25.895Z,29152.00
2018-04-17T07:05:25.899Z,29600.00
2018-04-17T07:06:25.904Z,29696.00
2018-04-17T07:07:25.911Z,30048.00
2018-04-17T07:08:25.919Z,30464.00
2018-04-17T07:09:25.930Z,30592.00
2018-04-17T07:10:25.938Z,30336.00
2018-04-17T07:11:25.945Z,30848.00
2018-04-17T07:12:25.951Z,30624.00
2018-04-17T07:13:25.957Z,31072.00
2018-04-17T07:14:25.968Z,31392.00
2018-04-17T07:15:25.978Z,31168.00
2018-04-17T07:16:25.986Z,31328.00
2018-04-17T07:17:25.993Z,30688.00
2018-04-17T07:18:26.003Z,31040.00
2018-04-17T07:19:26.006Z,31872.00
2018-04-17T07:20:26.015Z,32608.00
2018-04-17T07:21:26.024Z,32608.00
2018-04-17T07:22:26.032Z,32544.00
2018-04-17T07:23:26.041Z,32672.00
2018-04-17T07:24:26.050Z,32768.00
2018-04-17T07:25:26.059Z,33248.00
2018-04-17T07:26:26.068Z,33632.00
2018-04-17T07:27:26.077Z,33504.00
2018-04-17T07:28:26.086Z,33696.00
2018-04-17T07:29:26.125Z,34208.00
2018-04-17T07:30:26.108Z,34272.00
2018-04-17T07:31:26.114Z,34400.00
2018-04-17T07:32:26.124Z,34336.00
2018-04-17T07:33:26.130Z,33760.00
2018-04-17T07:34:26.142Z,34880.00
2018-04-17T07:35:26.154Z,34464.00
2018-04-17T07:36:26.166Z,27936.00
2018-04-17T07:37:26.169Z,28256.00
2018-04-17T07:38:26.180Z,29184.00
2018-04-17T07:39:26.190Z,30304.00
2018-04-17T07:40:26.226Z,31712.00
2018-04-17T07:41:26.210Z,34624.00
2018-04-17T07:42:26.219Z,38464.00
2018-04-17T07:43:26.231Z,43200.00
2018-04-17T07:44:26.241Z,48512.00
2018-04-17T07:45:26.249Z,53664.00
2018-04-17T07:46:26.260Z,55328.00
2018-04-17T07:47:26.285Z,53184.00
2018-04-17T07:48:26.289Z,52064.00
2018-04-17T07:49:26.296Z,51040.00
2018-04-17T07:50:26.358Z,50464.00
2018-04-17T07:51:26.315Z,50912.00
2018-04-17T07:52:26.326Z,52064.00
2018-04-17T07:53:26.339Z,55232.00
2018-04-17T07:54:26.349Z,58272.00
2018-04-17T07:55:26.361Z,57728.00
2018-04-17T07:56:26.373Z,55680.00
2018-04-17T07:57:26.385Z,58208.00
2018-04-17T07:58:26.403Z,64640.00
2018-04-17T07:59:26.413Z,72512.00
2018-04-17T08:00:26.422Z,74880.00
2018-04-17T08:01:26.439Z,75168.00
2018-04-17T08:02:26.450Z,75968.00
2018-04-17T08:03:26.459Z,76928.00
2018-04-17T08:04:26.474Z,80256.00
2018-04-17T08:05:26.489Z,83232.00
2018-04-17T08:06:26.499Z,78784.00
2018-04-17T08:07:26.514Z,77088.00
2018-04-17T08:08:26.526Z,75232.00
2018-04-17T08:09:26.544Z,69536.00
2018-04-17T08:10:26.556Z,68064.00
2018-04-17T08:11:26.565Z,68224.00
2018-04-17T08:12:26.579Z,67488.00
2018-04-17T08:13:26.606Z,66336.00
2018-04-17T08:14:26.611Z,63424.00
2018-04-17T08:15:26.621Z,59456.00
2018-04-17T08:16:26.636Z,56672.00
2018-04-17T08:17:26.650Z,55168.00
2018-04-17T08:18:26.664Z,52160.00
2018-04-17T08:19:26.679Z,49056.00
2018-04-17T08:20:26.696Z,47456.00
2018-04-17T08:21:26.710Z,48160.00
2018-04-17T08:22:26.728Z,49856.00
2018-04-17T08:23:26.739Z,47104.00
2018-04-17T08:24:26.758Z,43904.00
2018-04-17T08:25:26.767Z,43424.00
2018-04-17T08:26:26.786Z,42496.00
2018-04-17T08:27:26.801Z,41344.00
2018-04-17T08:28:26.820Z,40896.00
2018-04-17T08:29:26.830Z,40608.00
2018-04-17T08:30:26.844Z,39872.00
2018-04-17T08:31:26.863Z,39168.00
2018-04-17T08:32:26.877Z,39136.00
2018-04-17T08:33:26.888Z,39168.00
2018-04-17T08:34:26.906Z,39136.00
2018-04-17T08:35:26.920Z,38368.00
2018-04-17T08:36:26.937Z,38528.00
2018-04-17T08:37:26.951Z,39616.00
2018-04-17T08:38:26.968Z,40096.00
2018-04-17T08:39:26.983Z,42016.00
2018-04-17T08:40:27.000Z,41664.00
2018-04-17T08:41:27.018Z,41504.00
2018-04-17T08:42:27.034Z,41024.00
2018-04-17T08:43:27.048Z,40896.00
2018-04-17T08:44:27.064Z,39776.00
2018-04-17T08:45:27.083Z,38112.00
2018-04-17T08:46:27.100Z,38496.00
2018-04-17T08:47:27.112Z,38656.00
2018-04-17T08:48:27.128Z,39200.00
2018-04-17T08:49:27.149Z,40352.00
2018-04-17T08:50:27.161Z,40384.00
2018-04-17T08:51:27.177Z,41280.00
2018-04-17T08:52:27.194Z,41920.00
2018-04-17T08:53:27.210Z,40896.00
2018-04-17T08:54:27.261Z,42112.00
2018-04-17T08:55:27.246Z,42336.00
2018-04-17T08:56:27.262Z,41920.00
2018-04-17T08:57:27.279Z,41728.00
2018-04-17T08:58:27.296Z,41184.00
2018-04-17T08:59:27.318Z,42816.00
2018-04-17T09:00:27.333Z,44896.00
2018-04-17T09:01:27.345Z,44928.00
2018-04-17T09:02:27.363Z,44256.00
2018-04-17T09:03:27.386Z,44160.00
2018-04-17T09:04:27.410Z,44224.00
2018-04-17T09:05:27.415Z,43488.00
2018-04-17T09:06:27.434Z,43904.00
2018-04-17T09:07:27.450Z,43232.00
2018-04-17T09:08:27.470Z,44832.00
2018-04-17T09:09:27.486Z,46560.00
2018-04-17T09:10:27.513Z,46912.00
2018-04-17T09:11:27.524Z,47040.00
2018-04-17T09:12:27.540Z,47776.00
2018-04-17T09:13:27.562Z,47424.00
2018-04-17T09:14:27.580Z,47104.00
2018-04-17T09:15:27.594Z,46336.00
2018-04-17T09:16:27.613Z,45792.00
2018-04-17T09:17:27.634Z,44992.00
2018-04-17T09:18:27.656Z,43200.00
2018-04-17T09:19:27.668Z,40768.00
2018-04-17T09:20:27.687Z,40160.00
2018-04-17T09:21:27.705Z,43328.00
2018-04-17T09:22:27.724Z,45152.00
2018-04-17T09:23:27.743Z,43872.00
2018-04-17T09:24:27.762Z,43840.00
2018-04-17T09:25:27.779Z,45792.00
2018-04-17T09:26:27.797Z,47296.00
2018-04-17T09:27:27.857Z,46848.00
2018-04-17T09:28:27.838Z,45280.00
2018-04-17T09:29:27.852Z,45472.00
2018-04-17T09:30:27.871Z,44896.00
2018-04-17T09:31:27.893Z,44704.00
2018-04-17T09:32:27.914Z,47136.00
2018-04-17T09:33:27.925Z,48896.00
2018-04-17T09:34:27.955Z,49568.00
2018-04-17T09:35:27.966Z,48832.00
2018-04-17T09:36:27.985Z,48896.00
2018-04-17T09:37:27.998Z,50528.00
2018-04-17T09:38:28.017Z,51456.00
2018-04-17T09:39:28.037Z,51104.00
2018-04-17T09:40:28.058Z,51328.00
2018-04-17T09:41:28.074Z,52032.00
2018-04-17T09:42:28.101Z,52192.00
2018-04-17T09:43:28.111Z,52096.00
2018-04-17T09:44:28.128Z,51072.00
2018-04-17T09:45:28.150Z,49536.00
2018-04-17T09:46:28.169Z,46208.00
2018-04-17T09:47:28.184Z,44960.00
2018-04-17T09:48:28.204Z,45760.00
2018-04-17T09:49:28.226Z,40768.00
2018-04-17T09:50:28.248Z,38688.00
2018-04-17T09:51:28.261Z,40672.00
2018-04-17T09:52:28.281Z,41280.00
2018-04-17T09:53:28.300Z,42400.00
2018-04-17T09:54:28.320Z,43776.00
2018-04-17T09:55:28.341Z,41856.00
2018-04-17T09:56:28.359Z,44704.00
2018-04-17T09:57:28.424Z,43104.00
2018-04-17T09:58:28.394Z,38368.00
2018-04-17T09:59:28.413Z,35488.00
2018-04-17T10:00:28.432Z,35456.00
2018-04-17T10:01:28.449Z,33952.00
2018-04-17T10:02:28.469Z,31520.00
2018-04-17T10:03:28.491Z,33792.00
2018-04-17T10:04:28.509Z,36448.00
2018-04-17T10:05:28.523Z,35008.00
2018-04-17T10:06:28.543Z,33216.00
2018-04-17T10:07:28.564Z,32960.00
2018-04-17T10:08:28.582Z,33504.00
2018-04-17T10:09:28.595Z,34496.00
2018-04-17T10:10:28.615Z,34272.00
2018-04-17T10:11:28.632Z,33120.00
2018-04-17T10:12:28.651Z,32704.00
2018-04-17T10:13:28.669Z,31584.00
2018-04-17T10:14:28.686Z,32096.00
2018-04-17T10:15:28.708Z,32352.00
2018-04-17T10:16:28.726Z,33120.00
2018-04-17T10:17:28.751Z,33600.00
2018-04-17T10:18:28.759Z,33472.00
2018-04-17T10:19:28.777Z,33504.00
2018-04-17T10:20:28.793Z,33472.00
2018-04-17T10:21:28.811Z,33280.00
2018-04-17T10:22:28.873Z,32960.00
2018-04-17T10:23:28.846Z,31296.00
2018-04-17T10:24:28.864Z,32000.00
2018-04-17T10:25:28.881Z,32960.00
2018-04-17T10:26:28.898Z,32832.00
2018-04-17T10:27:28.919Z,32736.00
2018-04-17T10:28:28.937Z,32128.00
2018-04-17T10:29:28.954Z,31872.00
2018-04-17T10:30:28.977Z,32448.00
2018-04-17T10:31:28.985Z,30784.00
2018-04-17T10:32:29.004Z,31392.00
2018-04-17T10:33:29.019Z,31904.00
2018-04-17T10:34:29.037Z,32384.00
2018-04-17T10:35:29.054Z,31712.00
2018-04-17T10:36:29.071Z,31584.00
2018-04-17T10:37:29.089Z,31584.00
2018-04-17T10:38:29.105Z,31360.00
2018-04-17T10:39:29.123Z,30912.00
2018-04-17T10:40:29.140Z,30336.00
2018-04-17T10:41:29.160Z,30976.00
2018-04-17T10:42:29.178Z,31840.00
2018-04-17T10:43:29.192Z,31296.00
2018-04-17T10:44:29.210Z,31296.00
2018-04-17T10:45:29.229Z,30336.00
2018-04-17T10:46:29.291Z,30272.00
2018-04-17T10:47:29.264Z,32256.00
2018-04-17T10:48:29.281Z,33760.00
2018-04-17T10:49:29.293Z,33760.00
2018-04-17T10:50:29.310Z,35104.00
2018-04-17T10:51:29.327Z,37344.00
2018-04-17T10:52:29.346Z,41920.00
2018-04-17T10:53:29.365Z,44384.00
2018-04-17T10:54:29.379Z,48832.00
2018-04-17T10:55:29.395Z,59328.00
2018-04-17T10:56:29.415Z,73760.00
2018-04-17T10:57:29.428Z,84192.00
2018-04-17T10:58:29.445Z,98720.00
2018-04-17T10:59:29.465Z,106720.00
2018-04-17T11:00:29.480Z,102080.00
2018-04-17T11:01:29.496Z,95840.00
2018-04-17T11:02:29.513Z,90112.00
2018-04-17T11:03:29.525Z,89984.00
2018-04-17T11:04:29.542Z,92768.00
2018-04-17T11:05:29.558Z,95872.00
2018-04-17T11:06:29.572Z,92864.00
2018-04-17T11:07:29.588Z,94240.00
2018-04-17T11:08:29.605Z,94496.00
2018-04-17T11:09:29.620Z,94144.00
2018-04-17T11:10:29.635Z,94560.00
2018-04-17T11:11:29.652Z,91136.00
2018-04-17T11:12:29.666Z,100192.00
2018-04-17T11:13:29.684Z,96896.00
2018-04-17T11:14:29.700Z,92480.00
2018-04-17T11:15:29.715Z,88352.00
2018-04-17T11:16:29.726Z,90048.00
2018-04-17T11:17:29.741Z,87200.00
2018-04-17T11:18:29.756Z,82432.00
2018-04-17T11:19:29.771Z,86304.00
2018-04-17T11:20:29.788Z,87808.00
2018-04-17T11:21:29.806Z,82496.00
2018-04-17T11:22:29.821Z,43200.00
2018-04-17T11:23:29.831Z,12276.00
2018-04-17T11:24:29.847Z,10172.00
2018-04-17T11:25:29.871Z,9860.00
2018-04-17T11:26:29.879Z,9792.00
2018-04-17T11:27:29.890Z,9840.00
2018-04-17T11:28:29.905Z,9800.00
2018-04-17T11:29:29.916Z,9764.00
2018-04-17T11:30:29.930Z,9672.00
2018-04-17T11:31:29.944Z,9604.00
2018-04-17T11:32:29.956Z,9368.00
2018-04-17T11:33:29.968Z,9312.00
2018-04-17T11:34:30.021Z,9336.00
2018-04-17T11:35:29.992Z,9364.00
2018-04-17T11:36:30.004Z,9384.00
2018-04-17T11:37:30.014Z,9376.00
2018-04-17T11:38:30.025Z,9376.00
2018-04-17T11:39:30.039Z,9212.00
2018-04-17T11:40:30.053Z,8840.00
2018-04-17T11:41:30.054Z,8628.00
2018-04-17T11:42:30.063Z,8376.00
2018-04-17T11:43:30.078Z,8392.00
2018-04-17T11:44:30.086Z,8344.00
2018-04-17T11:45:30.091Z,8296.00
2018-04-17T11:46:30.100Z,8172.00
2018-04-17T11:47:30.109Z,8052.00
2018-04-17T11:48:30.117Z,8100.00
2018-04-17T11:49:30.123Z,8024.00
2018-04-17T11:50:30.131Z,8048.00
2018-04-17T11:51:30.141Z,8172.00
2018-04-17T11:52:30.147Z,8200.00
2018-04-17T11:53:30.157Z,8336.00
2018-04-17T11:54:30.164Z,8376.00
2018-04-17T11:55:30.168Z,8360.00
2018-04-17T11:56:30.175Z,8204.00
2018-04-17T11:57:30.242Z,8288.00
2018-04-17T11:58:30.192Z,8388.00
2018-04-17T11:59:30.194Z,8508.00
2018-04-17T12:00:30.201Z,8464.00
2018-04-17T12:01:30.206Z,8544.00
2018-04-17T12:02:30.215Z,8380.00
2018-04-17T12:03:30.219Z,8140.00
2018-04-17T12:04:30.225Z,8228.00
2018-04-17T12:05:30.231Z,8224.00
2018-04-17T12:06:30.242Z,8136.00
2018-04-17T12:07:30.244Z,8056.00
2018-04-17T12:08:30.250Z,7936.00
2018-04-17T12:09:30.255Z,7824.00
2018-04-17T12:10:30.262Z,7588.00
2018-04-17T12:11:30.270Z,7732.00
2018-04-17T12:12:30.277Z,7788.00
2018-04-17T12:13:30.277Z,7484.00
2018-04-17T12:14:30.283Z,7444.00
2018-04-17T12:15:30.293Z,7080.00
2018-04-17T12:16:30.298Z,7028.00
2018-04-17T12:17:30.298Z,7828.00
2018-04-17T12:18:30.307Z,8052.00
2018-04-17T12:19:30.310Z,8156.00